createdAt,value
2022-11-29T00:01:05.109Z,4.07
2022-11-29T00:03:31.899Z,5.32
2022-11-29T00:06:04.486Z,4.95
2022-11-29T00:08:31.178Z,5.40
2022-11-29T00:10:57.857Z,6.65
2022-11-29T00:13:24.580Z,5.18
2022-11-29T00:15:51.192Z,7.05
2022-11-29T00:18:17.875Z,4.95
2022-11-29T00:20:44.545Z,4.50
2022-11-29T00:23:11.509Z,5.03
2022-11-29T00:25:38.716Z,5.28
2022-11-29T00:28:05.379Z,5.95
2022-11-29T00:30:32.036Z,5.10
2022-11-29T00:32:58.843Z,4.85
2022-11-29T00:35:25.519Z,5.53
2022-11-29T00:37:52.133Z,4.88
2022-11-29T00:40:18.809Z,5.63
2022-11-29T00:42:45.389Z,6.97
2022-11-29T00:45:12.255Z,5.97
2022-11-29T00:47:38.845Z,5.25
2022-11-29T00:50:06.503Z,6.05
2022-11-29T00:52:33.229Z,5.05
2022-11-29T00:54:59.834Z,5.93
2022-11-29T00:57:26.497Z,4.72
2022-11-29T00:59:53.120Z,6.35
2022-11-29T01:02:19.874Z,5.82
2022-11-29T01:04:46.882Z,6.70
2022-11-29T01:07:13.793Z,8.90
2022-11-29T01:09:40.507Z,8.05
2022-11-29T01:12:07.415Z,6.03
2022-11-29T01:14:34.074Z,6.15
2022-11-29T01:17:00.705Z,7.22
2022-11-29T01:19:27.387Z,6.38
2022-11-29T01:21:54.330Z,7.80
2022-11-29T01:24:22.345Z,8.30
2022-11-29T01:26:49.023Z,6.45
2022-11-29T01:29:15.781Z,5.47
2022-11-29T01:31:42.432Z,8.50
2022-11-29T01:34:10.635Z,8.75
2022-11-29T01:36:37.350Z,6.82
2022-11-29T01:39:04.677Z,5.47
2022-11-29T01:41:32.655Z,7.20
2022-11-29T01:44:07.142Z,6.22
2022-11-29T01:46:38.538Z,6.93
2022-11-29T01:49:16.184Z,6.63
2022-11-29T01:51:45.725Z,6.72
2022-11-29T01:54:12.457Z,6.30
2022-11-29T01:56:39.161Z,6.72
2022-11-29T01:59:10.673Z,7.85
2022-11-29T02:01:37.385Z,7.75
2022-11-29T02:04:04.191Z,9.18
2022-11-29T02:06:30.846Z,8.90
2022-11-29T02:08:57.616Z,7.78
2022-11-29T02:11:39.454Z,6.50
2022-11-29T02:14:38.508Z,7.03
2022-11-29T02:17:16.670Z,10.18
2022-11-29T02:20:01.983Z,5.50
2022-11-29T02:22:46.811Z,4.35
2022-11-29T02:25:13.314Z,5.57
2022-11-29T02:28:09.413Z,8.13
2022-11-29T02:30:44.890Z,5.65
2022-11-29T02:33:35.773Z,6.72
2022-11-29T02:36:35.901Z,4.80
2022-11-29T02:39:36.261Z,5.35
2022-11-29T02:42:18.352Z,8.45
2022-11-29T02:45:02.550Z,5.72
2022-11-29T02:48:08.687Z,4.70
2022-11-29T02:50:44.000Z,7.30
2022-11-29T02:53:33.321Z,7.03
2022-11-29T02:56:09.030Z,4.78
2022-11-29T02:58:48.575Z,3.95
2022-11-29T03:01:23.716Z,5.22
2022-11-29T03:04:08.989Z,3.20
2022-11-29T03:06:50.757Z,2.92
2022-11-29T03:09:55.616Z,3.83
2022-11-29T03:12:40.080Z,3.58
2022-11-29T03:15:33.346Z,5.82
2022-11-29T03:18:10.996Z,3.75
2022-11-29T03:20:49.749Z,3.17
2022-11-29T03:23:31.234Z,3.63
2022-11-29T03:26:04.734Z,3.05
2022-11-29T03:28:37.701Z,3.08
2022-11-29T03:31:20.893Z,2.70
2022-11-29T03:34:15.112Z,2.42
2022-11-29T03:37:07.094Z,3.75
2022-11-29T03:39:45.559Z,3.50
2022-11-29T03:42:16.216Z,3.17
2022-11-29T03:44:51.313Z,3.85
2022-11-29T03:47:22.087Z,4.70
2022-11-29T03:49:52.682Z,6.20
2022-11-29T03:52:38.142Z,4.03
2022-11-29T03:55:45.373Z,4.55
2022-11-29T03:58:25.074Z,4.10
2022-11-29T04:01:16.179Z,3.67
2022-11-29T04:04:21.041Z,4.82
2022-11-29T04:06:59.669Z,3.47
2022-11-29T04:09:33.821Z,4.18
2022-11-29T04:12:25.145Z,3.78
2022-11-29T04:15:17.575Z,4.57
2022-11-29T04:18:02.840Z,3.17
2022-11-29T04:21:10.289Z,4.22
2022-11-29T04:24:04.708Z,3.40
2022-11-29T04:26:35.183Z,2.97
2022-11-29T04:29:08.119Z,2.05
2022-11-29T04:31:47.190Z,2.97
2022-11-29T04:35:05.111Z,3.92
2022-11-29T04:37:59.531Z,2.75
2022-11-29T04:40:41.155Z,3.53
2022-11-29T04:43:15.747Z,3.50
2022-11-29T04:46:27.736Z,4.72
2022-11-29T04:49:09.632Z,2.97
2022-11-29T04:52:03.834Z,4.10
2022-11-29T04:54:35.293Z,2.53
2022-11-29T04:57:04.695Z,4.00
2022-11-29T05:00:00.103Z,3.65
2022-11-29T05:02:41.875Z,4.13
2022-11-29T05:05:21.803Z,2.33
2022-11-29T05:07:52.522Z,2.72
2022-11-29T05:10:23.021Z,5.03
2022-11-29T05:13:12.577Z,4.53
2022-11-29T05:16:00.638Z,4.70
2022-11-29T05:18:55.079Z,3.92
2022-11-29T05:21:33.649Z,4.45
2022-11-29T05:24:17.638Z,4.55
2022-11-29T05:26:57.588Z,4.75
2022-11-29T05:29:27.261Z,5.05
2022-11-29T05:32:22.171Z,5.43
2022-11-29T05:35:27.150Z,5.95
2022-11-29T05:40:43.475Z,5.25
2022-11-29T05:43:15.454Z,5.25
2022-11-29T05:46:00.321Z,4.78
2022-11-29T05:48:37.518Z,10.93
2022-11-29T05:51:04.136Z,6.22
2022-11-29T05:54:14.910Z,5.90
2022-11-29T05:57:03.399Z,5.47
2022-11-29T05:59:30.386Z,4.38
2022-11-29T06:02:23.884Z,6.00
2022-11-29T06:05:28.616Z,4.85
2022-11-29T06:08:04.380Z,4.05
2022-11-29T06:10:33.037Z,5.07
2022-11-29T06:13:38.369Z,4.72
2022-11-29T06:16:26.084Z,4.53
2022-11-29T06:19:20.205Z,4.07
2022-11-29T06:22:01.855Z,5.00
2022-11-29T06:24:53.514Z,4.55
2022-11-29T06:27:21.887Z,7.75
2022-11-29T06:30:06.991Z,10.30
2022-11-29T06:33:06.311Z,4.10
2022-11-29T06:35:59.649Z,18.23
2022-11-29T06:38:27.960Z,8.68
2022-11-29T06:41:01.376Z,7.20
2022-11-29T06:46:18.601Z,5.88
2022-11-29T06:49:06.876Z,9.25
2022-11-29T06:51:36.551Z,9.43
2022-11-29T06:54:30.140Z,7.57
2022-11-29T06:57:08.884Z,6.38
2022-11-29T07:00:03.801Z,6.78
2022-11-29T07:02:52.428Z,6.13
2022-11-29T07:05:22.063Z,4.72
2022-11-29T07:07:49.003Z,5.13
2022-11-29T07:10:19.323Z,5.80
2022-11-29T07:12:46.636Z,5.22
2022-11-29T07:15:15.739Z,6.57
2022-11-29T07:17:54.261Z,5.85
2022-11-29T07:20:48.740Z,5.68
2022-11-29T07:23:38.579Z,2.85
2022-11-29T07:26:19.424Z,3.80
2022-11-29T07:29:04.778Z,5.93
2022-11-29T07:31:40.101Z,5.28
2022-11-29T07:34:44.660Z,4.05
2022-11-29T07:37:23.435Z,4.95
2022-11-29T07:40:11.868Z,3.88
2022-11-29T07:42:50.629Z,5.22
2022-11-29T07:45:21.625Z,4.18
2022-11-29T07:47:48.838Z,5.75
2022-11-29T07:50:15.810Z,5.85
2022-11-29T07:52:42.526Z,4.40
2022-11-29T07:55:18.877Z,6.30
2022-11-29T07:57:46.173Z,4.75
2022-11-29T08:00:13.925Z,5.78
2022-11-29T08:02:40.759Z,5.78
2022-11-29T08:05:08.089Z,5.38
2022-11-29T08:07:35.648Z,9.40
2022-11-29T08:10:02.815Z,6.20
2022-11-29T08:12:29.550Z,3.60
2022-11-29T08:14:56.228Z,4.85
2022-11-29T08:17:22.944Z,4.90
2022-11-29T08:19:49.550Z,6.85
2022-11-29T08:22:16.326Z,5.50
2022-11-29T08:24:43.345Z,10.70
2022-11-29T08:27:10.197Z,4.70
2022-11-29T08:29:36.990Z,3.22
2022-11-29T08:32:03.814Z,29.33
2022-11-29T08:34:31.842Z,7.60
2022-11-29T08:36:58.636Z,12.30
2022-11-29T08:39:25.319Z,5.18
2022-11-29T08:41:51.993Z,10.60
2022-11-29T08:44:18.690Z,5.07
2022-11-29T08:47:03.952Z,11.90
2022-11-29T08:49:30.635Z,4.03
2022-11-29T08:52:17.210Z,4.32
2022-11-29T08:54:44.315Z,6.18
2022-11-29T08:57:38.514Z,3.90
2022-11-29T08:59:57.979Z,5.97
2022-11-29T09:02:24.678Z,16.42
2022-11-29T09:04:51.340Z,48.83
2022-11-29T09:07:18.103Z,8.60
2022-11-29T09:09:44.724Z,8.30
2022-11-29T09:12:11.335Z,11.63
2022-11-29T09:14:38.011Z,4.45
2022-11-29T09:17:04.721Z,6.55
2022-11-29T09:19:31.349Z,18.05
2022-11-29T09:21:57.944Z,12.93
2022-11-29T09:24:24.694Z,31.08
2022-11-29T09:26:51.478Z,10.45
2022-11-29T09:29:18.156Z,15.35
2022-11-29T09:31:47.534Z,6.72
2022-11-29T09:34:15.290Z,4.38
2022-11-29T09:36:44.037Z,17.08
2022-11-29T09:39:12.497Z,22.90
2022-11-29T09:41:47.007Z,2.72
2022-11-29T09:44:36.569Z,4.47
2022-11-29T09:47:26.219Z,4.38
2022-11-29T09:49:59.672Z,3.67
2022-11-29T09:52:29.280Z,1.98
2022-11-29T09:55:33.302Z,4.07
2022-11-29T09:58:00.079Z,4.63
2022-11-29T10:00:26.707Z,3.58
2022-11-29T10:02:56.764Z,4.72
2022-11-29T10:05:30.096Z,5.28
2022-11-29T10:08:00.442Z,2.83
2022-11-29T10:10:44.728Z,2.30
2022-11-29T10:13:21.609Z,5.13
2022-11-29T10:15:50.563Z,3.60
2022-11-29T10:18:21.813Z,4.78
2022-11-29T10:20:49.737Z,4.05
2022-11-29T10:23:22.243Z,5.47
2022-11-29T10:25:58.717Z,4.45
2022-11-29T10:28:27.438Z,5.82
2022-11-29T10:30:54.742Z,4.00
2022-11-29T10:33:30.112Z,5.10
2022-11-29T10:35:59.319Z,5.47
2022-11-29T10:38:31.279Z,6.78
2022-11-29T10:41:03.158Z,6.55
2022-11-29T10:43:30.401Z,4.72
2022-11-29T10:45:57.372Z,6.53
2022-11-29T10:48:27.452Z,6.70
2022-11-29T10:50:54.222Z,7.72
2022-11-29T10:53:30.786Z,6.60
2022-11-29T10:55:57.362Z,9.13
2022-11-29T10:58:29.031Z,7.55
2022-11-29T11:01:08.062Z,7.88
2022-11-29T11:03:41.462Z,7.20
2022-11-29T11:06:18.848Z,8.10
2022-11-29T11:08:52.118Z,7.78
2022-11-29T11:11:29.135Z,8.45
2022-11-29T11:14:26.136Z,6.63
2022-11-29T11:16:54.032Z,9.70
2022-11-29T11:19:31.735Z,23.88
2022-11-29T11:21:59.582Z,13.63
2022-11-29T11:24:44.640Z,10.70
2022-11-29T11:27:11.568Z,11.68
2022-11-29T11:29:42.395Z,12.02
2022-11-29T11:32:19.303Z,13.40
2022-11-29T11:34:56.961Z,12.27
2022-11-29T11:37:33.346Z,8.95
2022-11-29T11:40:01.520Z,8.32
2022-11-29T11:42:38.356Z,13.70
2022-11-29T11:45:11.177Z,13.15
2022-11-29T11:47:45.033Z,13.70
2022-11-29T11:50:13.662Z,16.65
2022-11-29T11:52:50.815Z,12.43
2022-11-29T11:55:29.830Z,17.58
2022-11-29T11:58:10.164Z,11.57
2022-11-29T12:01:04.663Z,10.02
2022-11-29T12:06:16.810Z,34.22
2022-11-29T12:08:43.623Z,15.65
2022-11-29T12:11:11.559Z,12.80
2022-11-29T12:13:40.139Z,10.32
2022-11-29T12:16:19.242Z,8.38
2022-11-29T12:18:50.162Z,9.00
2022-11-29T12:21:18.472Z,8.43
2022-11-29T12:24:22.602Z,10.85
2022-11-29T12:26:57.019Z,12.00
2022-11-29T12:29:24.825Z,15.50
2022-11-29T12:31:55.252Z,13.82
2022-11-29T12:34:22.791Z,12.65
2022-11-29T12:37:04.840Z,11.88
2022-11-29T12:39:53.600Z,26.85
2022-11-29T12:42:36.036Z,23.15
2022-11-29T12:45:20.797Z,13.73
2022-11-29T12:48:11.058Z,14.30
2022-11-29T12:50:39.682Z,16.63
2022-11-29T12:53:44.223Z,15.20
2022-11-29T12:56:27.267Z,13.98
2022-11-29T12:59:02.481Z,10.00
2022-11-29T13:01:51.240Z,11.73
2022-11-29T13:04:41.129Z,11.30
2022-11-29T13:07:26.583Z,12.40
2022-11-29T13:10:16.344Z,11.00
2022-11-29T13:12:47.825Z,11.07
2022-11-29T13:15:19.499Z,13.30
2022-11-29T13:18:24.693Z,14.02
2022-11-29T13:21:00.903Z,15.80
2022-11-29T13:23:46.235Z,23.48
2022-11-29T13:26:19.525Z,123.90
2022-11-29T13:28:49.298Z,125.95
2022-11-29T13:31:18.606Z,52.65
2022-11-29T13:33:54.451Z,44.78
2022-11-29T13:36:45.759Z,36.70
2022-11-29T13:39:41.450Z,46.30
2022-11-29T13:42:14.045Z,70.32
2022-11-29T13:44:46.711Z,156.07
2022-11-29T13:47:14.943Z,37.33
2022-11-29T13:49:53.667Z,26.92
2022-11-29T13:52:40.610Z,30.33
2022-11-29T13:55:14.562Z,23.20
2022-11-29T13:58:15.541Z,12.88
2022-11-29T14:00:43.982Z,16.77
2022-11-29T14:03:28.953Z,18.13
2022-11-29T14:06:34.290Z,12.70
2022-11-29T14:09:22.628Z,39.30
2022-11-29T14:11:54.129Z,180.10
2022-11-29T14:14:48.707Z,62.42
2022-11-29T14:17:37.603Z,40.03
2022-11-29T14:20:39.585Z,32.13
2022-11-29T14:23:06.410Z,19.85
2022-11-29T14:28:22.991Z,30.58
2022-11-29T14:30:50.401Z,20.58
2022-11-29T14:33:23.097Z,66.93
2022-11-29T14:35:56.768Z,128.55
2022-11-29T14:38:32.218Z,29.35
2022-11-29T14:41:00.403Z,29.10
2022-11-29T14:43:33.755Z,60.53
2022-11-29T14:46:15.732Z,74.50
2022-11-29T14:48:55.458Z,54.35
2022-11-29T14:51:26.579Z,49.92
2022-11-29T14:54:12.259Z,24.00
2022-11-29T14:56:42.512Z,24.83
2022-11-29T14:59:51.464Z,48.03
2022-11-29T15:02:38.669Z,15.68
2022-11-29T15:05:18.798Z,5.05
2022-11-29T15:07:57.344Z,111.68
2022-11-29T15:10:25.865Z,36.30
2022-11-29T15:12:52.560Z,45.38
2022-11-29T15:15:27.095Z,20.33
2022-11-29T15:18:02.805Z,86.40
2022-11-29T15:20:58.508Z,124.90
2022-11-29T15:23:25.144Z,105.13
2022-11-29T15:25:52.927Z,212.27
2022-11-29T15:28:29.270Z,114.10
2022-11-29T15:31:06.710Z,68.25
2022-11-29T15:33:34.187Z,258.10
2022-11-29T15:36:08.437Z,134.45
2022-11-29T15:38:49.090Z,56.10
2022-11-29T15:41:35.356Z,35.78
2022-11-29T15:44:05.799Z,10.63
2022-11-29T15:46:34.114Z,5.10
2022-11-29T15:49:26.248Z,22.98
2022-11-29T15:52:08.423Z,6.72
2022-11-29T15:55:02.329Z,3.45
2022-11-29T15:57:46.746Z,4.13
2022-11-29T16:03:01.431Z,4.28
2022-11-29T16:05:31.941Z,4.30
2022-11-29T16:08:05.815Z,4.57
2022-11-29T16:10:36.169Z,6.82
2022-11-29T16:13:07.892Z,3.78
2022-11-29T16:15:37.670Z,6.20
2022-11-29T16:18:14.887Z,3.47
2022-11-29T16:20:41.562Z,31.63
2022-11-29T16:23:08.209Z,108.60
2022-11-29T16:25:37.773Z,112.40
2022-11-29T16:28:05.993Z,7.90
2022-11-29T16:30:32.742Z,5.82
2022-11-29T16:32:59.669Z,4.22
2022-11-29T16:35:29.912Z,5.78
2022-11-29T16:37:56.505Z,5.95
2022-11-29T16:40:30.280Z,8.82
2022-11-29T16:43:02.987Z,220.32
2022-11-29T16:45:39.551Z,175.73
2022-11-29T16:48:30.157Z,151.75
2022-11-29T16:51:14.942Z,57.03
2022-11-29T16:53:42.434Z,54.95
2022-11-29T16:56:12.847Z,62.22
2022-11-29T16:59:20.677Z,28.20
2022-11-29T17:01:30.853Z,26.15
2022-11-29T17:03:58.233Z,32.20
2022-11-29T17:06:25.002Z,39.25
2022-11-29T17:08:52.149Z,54.20
2022-11-29T17:11:18.930Z,31.48
2022-11-29T17:13:46.373Z,10.90
2022-11-29T17:16:17.651Z,6.72
2022-11-29T17:18:45.224Z,1.15
2022-11-29T17:21:25.739Z,2.13
2022-11-29T17:23:52.536Z,4.63
2022-11-29T17:26:19.648Z,1.80
2022-11-29T17:28:47.644Z,166.60
2022-11-29T17:31:21.676Z,31.33
2022-11-29T17:36:16.710Z,44.20
2022-11-29T17:38:44.114Z,251.18
2022-11-29T17:41:11.658Z,227.30
2022-11-29T17:43:38.438Z,361.85
2022-11-29T17:46:09.736Z,323.73
2022-11-29T17:48:36.686Z,136.00
2022-11-29T17:51:06.929Z,74.93
2022-11-29T17:53:40.094Z,12.45
2022-11-29T17:56:14.169Z,6.32
2022-11-29T18:01:12.522Z,9.68
2022-11-29T18:03:40.437Z,6.85
2022-11-29T18:06:11.205Z,18.02
2022-11-29T18:08:39.123Z,62.63
2022-11-29T18:11:46.867Z,7.07
2022-11-29T18:14:16.006Z,15.23
2022-11-29T18:16:43.005Z,6.22
2022-11-29T18:19:12.208Z,8.65
2022-11-29T18:21:39.029Z,3.67
2022-11-29T18:24:06.728Z,3.95
2022-11-29T18:26:33.908Z,3.85
2022-11-29T18:29:00.648Z,4.53
2022-11-29T18:31:31.887Z,3.53
2022-11-29T18:34:00.189Z,5.20
2022-11-29T18:36:31.574Z,5.80
2022-11-29T18:38:59.897Z,3.72
2022-11-29T18:41:28.266Z,2.80
2022-11-29T18:44:02.216Z,3.92
2022-11-29T18:46:32.966Z,2.17
2022-11-29T18:49:01.103Z,2.22
2022-11-29T18:51:28.659Z,4.55
2022-11-29T18:53:55.437Z,2.30
2022-11-29T18:56:23.189Z,5.43
2022-11-29T18:59:00.470Z,2.25
2022-11-29T19:01:28.853Z,8.30
2022-11-29T19:03:56.973Z,5.63
2022-11-29T19:06:25.323Z,2.28
2022-11-29T19:08:52.377Z,4.68
2022-11-29T19:11:20.787Z,1.77
2022-11-29T19:13:47.514Z,1.45
2022-11-29T19:16:16.464Z,24.63
2022-11-29T19:18:43.332Z,29.45
2022-11-29T19:21:11.890Z,6.18
2022-11-29T19:23:38.576Z,4.53
2022-11-29T19:26:14.792Z,11.45
2022-11-29T19:28:42.665Z,4.78
2022-11-29T19:31:09.692Z,2.45
2022-11-29T19:33:37.021Z,6.43
2022-11-29T19:36:24.492Z,26.55
2022-11-29T19:38:53.824Z,7.90
2022-11-29T19:41:26.160Z,3.22
2022-11-29T19:43:52.891Z,13.52
2022-11-29T19:46:26.613Z,6.07
2022-11-29T19:48:54.508Z,1.58
2022-11-29T19:51:21.379Z,1.27
2022-11-29T19:53:48.107Z,0.90
2022-11-29T19:56:15.846Z,0.70
2022-11-29T19:58:43.030Z,7.65
2022-11-29T20:01:11.839Z,11.20
2022-11-29T20:03:38.689Z,3.22
2022-11-29T20:06:05.333Z,8.45
2022-11-29T20:08:32.297Z,9.85
2022-11-29T20:11:12.624Z,6.55
2022-11-29T20:13:39.557Z,11.35
2022-11-29T20:16:09.653Z,2.72
2022-11-29T20:18:37.626Z,2.05
2022-11-29T20:21:14.581Z,6.15
2022-11-29T20:23:41.585Z,3.47
2022-11-29T20:26:16.056Z,1.30
2022-11-29T20:28:43.202Z,2.55
2022-11-29T20:31:13.127Z,0.45
2022-11-29T20:33:40.899Z,1.48
2022-11-29T20:36:17.816Z,2.25
2022-11-29T20:38:53.415Z,94.88
2022-11-29T20:41:40.678Z,4.50
2022-11-29T20:44:08.303Z,8.93
2022-11-29T20:46:35.121Z,26.60
2022-11-29T20:49:06.524Z,42.90
2022-11-29T20:51:58.554Z,25.80
2022-11-29T20:54:25.205Z,6.57
2022-11-29T20:56:51.909Z,3.33
2022-11-29T20:59:18.538Z,1.95
2022-11-29T21:01:45.250Z,1.10
2022-11-29T21:04:11.938Z,4.90
2022-11-29T21:06:38.920Z,0.90
2022-11-29T21:09:05.876Z,0.60
2022-11-29T21:11:32.780Z,2.65
2022-11-29T21:14:03.473Z,7.70
2022-11-29T21:16:31.278Z,3.03
2022-11-29T21:19:00.111Z,3.20
2022-11-29T21:21:52.941Z,9.85
2022-11-29T21:24:22.544Z,1.25
2022-11-29T21:26:52.508Z,12.68
2022-11-29T21:29:20.489Z,1.75
2022-11-29T21:31:48.421Z,3.22
2022-11-29T21:34:15.174Z,2.35
2022-11-29T21:36:41.914Z,4.05
2022-11-29T21:39:13.275Z,3.65
2022-11-29T21:41:39.883Z,1.45
2022-11-29T21:44:07.922Z,1.23
2022-11-29T21:46:35.298Z,2.42
2022-11-29T21:49:02.022Z,2.38
2022-11-29T21:51:28.671Z,2.22
2022-11-29T21:53:55.264Z,1.10
2022-11-29T21:56:22.106Z,2.55
2022-11-29T21:58:48.764Z,1.77
2022-11-29T22:01:17.262Z,2.83
2022-11-29T22:03:44.016Z,6.93
2022-11-29T22:06:12.650Z,3.83
2022-11-29T22:08:40.501Z,2.92
2022-11-29T22:11:09.614Z,2.17
2022-11-29T22:13:37.076Z,1.40
2022-11-29T22:16:10.471Z,1.58
2022-11-29T22:18:37.216Z,2.35
2022-11-29T22:21:05.538Z,1.90
2022-11-29T22:23:32.423Z,1.98
2022-11-29T22:26:06.509Z,1.75
2022-11-29T22:31:03.721Z,2.25
2022-11-29T22:33:30.645Z,1.20
2022-11-29T22:35:57.394Z,0.70
2022-11-29T22:38:24.107Z,1.20
2022-11-29T22:40:50.824Z,1.27
2022-11-29T22:43:17.553Z,0.50
2022-11-29T22:45:44.138Z,0.68
2022-11-29T22:48:10.830Z,1.33
2022-11-29T22:50:37.540Z,1.27
2022-11-29T22:53:04.138Z,2.35
2022-11-29T22:55:30.825Z,1.38
2022-11-29T22:57:57.452Z,2.35
2022-11-29T23:00:24.112Z,0.98
2022-11-29T23:02:50.803Z,1.98
2022-11-29T23:05:17.433Z,1.02
2022-11-29T23:07:46.712Z,0.85
2022-11-29T23:10:13.388Z,0.88
2022-11-29T23:12:40.031Z,0.73
2022-11-29T23:15:06.874Z,1.38
2022-11-29T23:17:33.500Z,0.63
2022-11-29T23:20:00.133Z,0.43
2022-11-29T23:22:26.771Z,0.40
2022-11-29T23:24:53.338Z,0.30
2022-11-29T23:27:19.929Z,0.85
2022-11-29T23:29:46.526Z,0.32
2022-11-29T23:32:13.202Z,0.30
2022-11-29T23:34:39.837Z,0.40
2022-11-29T23:37:06.474Z,0.40
2022-11-29T23:39:33.248Z,0.30
2022-11-29T23:41:59.849Z,0.30
2022-11-29T23:44:26.490Z,0.60
2022-11-29T23:46:53.179Z,0.40
2022-11-29T23:49:19.799Z,0.40
2022-11-29T23:51:46.406Z,0.40
2022-11-29T23:54:13.086Z,0.40
2022-11-29T23:56:39.714Z,0.47
2022-11-29T23:59:06.498Z,1.35
